Terminal Aerodrome Forecast
Issued by NWS

Home | Current Version | Previous Version | Text Only | Print | Product List | Glossary On
Versions: 1 2 3 4 5 6 7 8 9 10 11 12 13
613
FTAK31 PAJN 061340 AAA
TAFASI
TAF AMD
PASI 061340Z 0614/0712 12006KT P6SM -SHRA BKN030 OVC050
      TEMPO 0614/0616 2SM -SHSNRA OVC009
     FM061700 19007KT P6SM VCSH SCT070 BKN100
     FM062000 21006KT P6SM BKN070 BKN100
     FM070600 11008KT P6SM BKN070 BKN100=

USA.gov is the U.S. government's official web portal to all federal, state and local government web resources and services.